Time;durP1;ratioP1;P1;durP2;ratioP2;P2;SDS_P1;SDS_P2;PMS_P1;PMS_P2;Temp;Humidity;BMP_temperature;BMP_pressure;BME280_temperature;BME280_humidity;BME280_pressure;Samples;Min_cycle;Max_cycle;Signal;HPM_P1;HPM_P2
2020/12/11 00:02:26;;;;;;;13.17;8.03;;;;;;;4.31;86.94;101679.03;6212769;28;20220;-77
2020/12/11 00:05:47;;;;;;;9.03;7.50;;;;;;;4.23;87.44;101676.25;6213242;28;20206;-77
2020/12/11 00:09:07;;;;;;;12.73;7.97;;;;;;;4.32;87.02;101676.16;6205231;28;20236;-76
2020/12/11 00:12:14;;;;;;;15.23;8.00;;;;;;;4.31;87.01;101673.63;6213393;28;20291;-76
2020/12/11 00:15:21;;;;;;;16.70;7.90;;;;;;;4.39;87.05;101681.81;6208928;28;20243;-77
2020/12/11 00:18:32;;;;;;;11.83;7.40;;;;;;;4.27;86.99;101672.22;6213024;28;20200;-76
2020/12/11 00:21:39;;;;;;;12.37;7.60;;;;;;;4.28;86.54;101673.94;6214562;28;20215;-78
2020/12/11 00:24:42;;;;;;;13.37;7.93;;;;;;;4.24;86.94;101675.22;6222733;28;21025;-77
2020/12/11 00:27:46;;;;;;;10.63;6.80;;;;;;;4.18;87.41;101667.78;6217051;28;20319;-77
2020/12/11 00:30:50;;;;;;;10.53;7.57;;;;;;;4.17;88.12;101666.91;6210864;28;20564;-77
2020/12/11 00:34:02;;;;;;;11.10;7.50;;;;;;;4.14;87.43;101650.16;6199499;28;20183;-78
2020/12/11 00:37:26;;;;;;;12.90;7.80;;;;;;;4.18;88.01;101656.97;6217732;28;20236;-77
2020/12/11 00:40:35;;;;;;;9.00;7.17;;;;;;;4.03;87.65;101663.94;6217080;28;20214;-76
2020/12/11 00:43:52;;;;;;;11.80;7.53;;;;;;;4.08;87.34;101656.22;6215685;28;20199;-77
2020/12/11 00:47:02;;;;;;;10.43;7.27;;;;;;;4.31;86.82;101657.44;6215119;28;20206;-76
2020/12/11 00:50:05;;;;;;;18.33;7.70;;;;;;;4.16;86.68;101642.78;6209991;28;20257;-78
2020/12/11 00:53:16;;;;;;;11.63;7.40;;;;;;;4.12;86.37;101644.06;6214278;28;20399;-78
2020/12/11 00:56:23;;;;;;;15.13;6.93;;;;;;;4.06;86.52;101631.19;6210781;28;20195;-77
2020/12/11 00:59:26;;;;;;;9.80;6.77;;;;;;;4.05;87.54;101630.38;6209231;28;20206;-75
2020/12/11 01:02:30;;;;;;;14.07;6.83;;;;;;;3.93;87.47;101628.06;6198169;28;20269;-75
2020/12/11 01:05:35;;;;;;;7.57;6.63;;;;;;;3.95;87.09;101617.94;6199553;28;20261;-75
2020/12/11 01:08:38;;;;;;;10.17;5.97;;;;;;;3.77;86.99;101616.09;6200416;28;20552;-79
2020/12/11 01:11:42;;;;;;;13.63;6.30;;;;;;;3.92;87.10;101623.66;6217029;28;20203;-76
2020/12/11 01:14:46;;;;;;;11.37;6.37;;;;;;;3.91;86.51;101612.00;6215493;28;20267;-76
2020/12/11 01:17:52;;;;;;;8.40;6.23;;;;;;;3.66;86.26;101592.03;6207810;28;20292;-76
2020/12/11 01:20:56;;;;;;;7.93;6.37;;;;;;;4.04;86.21;101617.00;6209306;28;20218;-77
2020/12/11 01:24:00;;;;;;;8.30;5.80;;;;;;;3.87;86.00;101604.38;6209950;28;20300;-78
2020/12/11 01:27:04;;;;;;;7.17;6.00;;;;;;;3.90;85.91;101610.31;6213084;28;20244;-77
2020/12/11 01:30:11;;;;;;;17.17;7.33;;;;;;;3.70;86.36;101577.22;6216886;28;20208;-77
2020/12/11 01:33:32;;;;;;;8.07;6.07;;;;;;;3.85;86.12;101611.78;6209909;28;20258;-77
2020/12/11 01:36:35;;;;;;;10.37;6.93;;;;;;;4.00;85.93;101604.84;6208148;28;20250;-75
2020/12/11 01:39:40;;;;;;;11.40;7.00;;;;;;;3.89;85.63;101602.34;6194255;28;20212;-76
2020/12/11 01:42:44;;;;;;;8.67;7.07;;;;;;;3.97;86.05;101610.53;6209729;28;20222;-77
2020/12/11 01:45:48;;;;;;;10.40;6.83;;;;;;;3.96;86.44;101587.22;6212459;28;20654;-77
2020/12/11 01:48:53;;;;;;;11.23;6.67;;;;;;;3.91;86.22;101579.59;6209436;28;20750;-76
2020/12/11 01:51:56;;;;;;;9.80;6.23;;;;;;;3.89;86.72;101596.97;6217358;28;20213;-77
2020/12/11 01:55:00;;;;;;;10.90;7.03;;;;;;;3.91;87.39;101600.34;6214750;28;20372;-76
2020/12/11 01:58:14;;;;;;;10.07;7.13;;;;;;;4.18;86.27;101602.94;6214042;28;20196;-76
2020/12/11 02:01:18;;;;;;;8.97;6.77;;;;;;;4.21;85.17;101613.44;6213276;28;20592;-76
2020/12/11 02:04:41;;;;;;;9.40;6.53;;;;;;;4.01;86.31;101612.75;6209368;28;20254;-78
2020/12/11 02:07:46;;;;;;;13.23;7.27;;;;;;;3.98;86.95;101606.84;6213278;28;20208;-76
2020/12/11 02:10:50;;;;;;;9.13;5.83;;;;;;;4.16;85.43;101604.97;6207267;28;20247;-77
2020/12/11 02:13:55;;;;;;;14.03;6.80;;;;;;;4.00;85.22;101591.31;6213231;28;20270;-77
2020/12/11 02:16:59;;;;;;;10.63;6.60;;;;;;;3.99;86.04;101598.56;6215839;28;20226;-78
2020/12/11 02:20:05;;;;;;;13.00;7.13;;;;;;;4.06;86.19;101593.38;6211600;28;20719;-76
2020/12/11 02:23:18;;;;;;;14.17;7.10;;;;;;;3.98;85.52;101566.34;6205376;28;20213;-76
2020/12/11 02:26:24;;;;;;;7.43;6.63;;;;;;;4.35;85.34;101596.66;6198396;28;20504;-76
2020/12/11 02:29:28;;;;;;;9.73;7.10;;;;;;;4.17;85.25;101588.59;6211434;28;20203;-77
2020/12/11 02:32:32;;;;;;;9.90;6.60;;;;;;;4.04;86.24;101595.41;6208295;28;20282;-76
2020/12/11 02:35:46;;;;;;;10.03;6.73;;;;;;;4.17;86.04;101590.44;6216845;28;20186;-79
2020/12/11 02:38:51;;;;;;;14.40;7.00;;;;;;;4.25;85.56;101587.81;6216010;28;20286;-79
2020/12/11 02:41:54;;;;;;;8.20;6.93;;;;;;;4.33;85.43;101579.75;6216925;28;20233;-78
2020/12/11 02:44:58;;;;;;;9.20;6.97;;;;;;;4.31;85.79;101571.78;6218820;28;20578;-75
2020/12/11 02:48:02;;;;;;;8.67;7.07;;;;;;;4.21;86.53;101581.03;6219979;28;20198;-76
2020/12/11 02:51:08;;;;;;;9.97;7.00;;;;;;;4.14;86.90;101574.53;6213535;28;20221;-77
2020/12/11 02:54:13;;;;;;;11.10;7.37;;;;;;;4.16;87.47;101567.16;6217888;28;20196;-77
2020/12/11 02:57:20;;;;;;;8.30;6.80;;;;;;;4.24;86.78;101559.09;6219347;28;20202;-75
2020/12/11 03:00:25;;;;;;;17.43;7.13;;;;;;;4.24;87.40;101561.78;6220014;28;20638;-78
2020/12/11 03:03:46;;;;;;;14.30;7.33;;;;;;;4.08;88.17;101545.50;6215911;28;20201;-76
2020/12/11 03:06:49;;;;;;;14.67;8.40;;;;;;;4.05;88.49;101540.41;6217788;28;20548;-77
2020/12/11 03:09:54;;;;;;;7.97;7.13;;;;;;;4.04;88.74;101549.50;6201030;28;20236;-77
2020/12/11 03:12:58;;;;;;;18.97;7.60;;;;;;;4.08;88.63;101548.19;6218865;28;20676;-80
2020/12/11 03:16:01;;;;;;;13.10;8.63;;;;;;;4.01;87.94;101525.50;6220844;28;20205;-76
2020/12/11 03:19:09;;;;;;;15.63;7.90;;;;;;;4.04;88.55;101538.69;6219915;28;20202;-77
2020/12/11 03:22:15;;;;;;;22.83;8.13;;;;;;;4.25;87.48;101544.59;6215806;28;20228;-77
2020/12/11 03:25:19;;;;;;;17.87;7.90;;;;;;;4.39;86.24;101541.31;6213198;28;20310;-76
2020/12/11 03:28:31;;;;;;;10.70;7.63;;;;;;;4.27;86.75;101538.00;6207658;28;20603;-76
2020/12/11 03:31:35;;;;;;;19.80;7.93;;;;;;;4.13;87.38;101524.25;6216274;28;20656;-76
2020/12/11 03:34:39;;;;;;;13.00;8.77;;;;;;;4.14;86.84;101537.59;6212765;28;20219;-77
2020/12/11 03:37:42;;;;;;;10.80;7.33;;;;;;;4.24;86.30;101526.66;6220060;28;20657;-77
2020/12/11 03:40:46;;;;;;;12.23;7.40;;;;;;;4.31;85.86;101533.16;6219437;28;20199;-78
2020/12/11 03:43:49;;;;;;;9.17;7.20;;;;;;;4.15;85.17;101528.50;6219682;28;20209;-76
2020/12/11 03:46:55;;;;;;;13.03;7.50;;;;;;;4.15;85.07;101517.69;6210804;28;20552;-76
2020/12/11 03:49:59;;;;;;;11.73;7.17;;;;;;;4.08;83.91;101521.19;6216836;28;20260;-77
2020/12/11 03:53:03;;;;;;;13.00;7.27;;;;;;;3.99;84.51;101522.97;6218700;28;20294;-76
2020/12/11 03:56:07;;;;;;;15.73;7.60;;;;;;;4.08;84.77;101518.47;6211882;28;20406;-77
2020/12/11 03:59:14;;;;;;;14.77;7.53;;;;;;;4.19;83.50;101518.19;6217962;28;20227;-76
2020/12/11 04:02:17;;;;;;;12.57;7.73;;;;;;;4.07;83.24;101514.06;6218682;28;20753;-76
2020/12/11 04:05:21;;;;;;;11.73;7.33;;;;;;;4.06;83.91;101512.38;6216856;28;20194;-75
2020/12/11 04:08:28;;;;;;;12.23;7.70;;;;;;;4.23;84.08;101525.00;6216914;28;20217;-75
2020/12/11 04:11:35;;;;;;;14.73;7.70;;;;;;;4.25;82.17;101509.47;6217442;28;20209;-76
2020/12/11 04:14:39;;;;;;;9.43;7.53;;;;;;;4.42;81.18;101530.16;6215257;28;20280;-78
2020/12/11 04:17:42;;;;;;;17.07;8.60;;;;;;;4.43;81.17;101518.34;6214550;28;20224;-77
2020/12/11 04:20:45;;;;;;;17.60;7.60;;;;;;;4.17;81.07;101509.41;6211423;28;20290;-77
2020/12/11 04:23:49;;;;;;;11.20;8.20;;;;;;;4.08;81.86;101515.78;6219415;28;20268;-76
2020/12/11 04:26:53;;;;;;;13.33;8.57;;;;;;;4.05;82.31;101508.00;6214220;28;20246;-77
2020/12/11 04:29:56;;;;;;;12.53;8.33;;;;;;;4.06;82.58;101501.56;6218449;28;20209;-77
2020/12/11 04:33:00;;;;;;;8.93;7.40;;;;;;;3.88;81.89;101492.69;6198835;28;20254;-76
2020/12/11 04:36:03;;;;;;;10.30;7.93;;;;;;;4.01;81.69;101509.28;6215769;28;20277;-76
2020/12/11 04:39:07;;;;;;;15.23;8.80;;;;;;;4.08;81.86;101510.38;6214513;28;20207;-75
2020/12/11 04:42:16;;;;;;;15.20;8.63;;;;;;;3.93;81.38;101484.97;6212278;28;20832;-77
2020/12/11 04:45:19;;;;;;;16.70;8.37;;;;;;;4.06;80.18;101506.97;6189994;28;20190;-76
2020/12/11 04:48:29;;;;;;;18.67;8.53;;;;;;;4.00;79.33;101507.63;6214479;28;20217;-75
2020/12/11 04:51:49;;;;;;;12.17;8.10;;;;;;;4.08;79.29;101504.97;6205097;28;20204;-75
2020/12/11 04:54:59;;;;;;;12.23;9.10;;;;;;;4.01;79.75;101509.28;6213812;28;20190;-77
2020/12/11 04:58:05;;;;;;;18.27;8.90;;;;;;;3.97;79.60;101513.34;6214497;28;20207;-77
2020/12/11 05:01:20;;;;;;;13.40;7.40;;;;;;;4.09;78.94;101506.66;6203807;28;20225;-77
2020/12/11 05:04:31;;;;;;;17.50;9.00;;;;;;;4.21;79.66;101510.81;6214143;28;20232;-76
2020/12/11 05:07:34;;;;;;;18.63;8.77;;;;;;;4.36;78.01;101509.22;6215976;28;20711;-77
2020/12/11 05:10:40;;;;;;;13.57;8.13;;;;;;;4.13;78.96;101486.44;6216602;28;20685;-78
2020/12/11 05:13:46;;;;;;;15.03;8.23;;;;;;;4.13;79.67;101505.34;6212284;28;20272;-75
2020/12/11 05:16:57;;;;;;;18.60;8.97;;;;;;;4.05;79.12;101506.16;6206468;28;20246;-75
2020/12/11 05:20:01;;;;;;;11.20;8.47;;;;;;;4.09;78.62;101476.94;6209057;28;20207;-77
2020/12/11 05:23:08;;;;;;;19.17;8.93;;;;;;;4.04;78.98;101481.97;6217127;28;20302;-76
2020/12/11 05:26:20;;;;;;;19.03;9.17;;;;;;;4.18;79.30;101486.81;6215481;28;20292;-77
2020/12/11 05:29:44;;;;;;;9.67;7.90;;;;;;;4.10;79.22;101486.75;6211022;28;20202;-77
2020/12/11 05:32:49;;;;;;;19.47;9.23;;;;;;;4.09;78.93;101491.31;6216706;28;20660;-77
2020/12/11 05:36:02;;;;;;;16.70;8.00;;;;;;;3.90;79.02;101474.47;6202223;28;20250;-77
2020/12/11 05:39:06;;;;;;;18.83;8.77;;;;;;;4.01;78.79;101493.09;6204371;28;20281;-77
2020/12/11 05:42:14;;;;;;;18.37;8.50;;;;;;;3.97;79.28;101486.34;6208310;28;20248;-77
2020/12/11 05:45:18;;;;;;;18.73;8.83;;;;;;;4.20;78.80;101490.19;6213325;28;20669;-76
2020/12/11 05:48:37;;;;;;;11.80;8.63;;;;;;;4.07;79.20;101481.66;6215446;28;20308;-78
2020/12/11 05:51:41;;;;;;;13.77;7.77;;;;;;;3.95;79.20;101461.34;6207960;28;20191;-75
2020/12/11 05:54:47;;;;;;;25.93;8.43;;;;;;;4.13;78.89;101481.03;6217601;28;20322;-76
2020/12/11 05:57:53;;;;;;;15.80;8.40;;;;;;;3.86;79.04;101457.75;6207131;28;20203;-77
2020/12/11 06:00:57;;;;;;;11.63;8.03;;;;;;;3.98;78.71;101477.25;6215671;28;20201;-77
2020/12/11 06:04:03;;;;;;;14.60;7.90;;;;;;;3.83;79.14;101468.84;6216993;28;20218;-78
2020/12/11 06:07:12;;;;;;;14.17;7.63;;;;;;;3.88;78.90;101476.50;6206265;28;20231;-76
2020/12/11 06:10:20;;;;;;;16.07;8.40;;;;;;;3.82;79.09;101466.31;6209565;28;20519;-78
2020/12/11 06:13:33;;;;;;;14.50;8.30;;;;;;;3.83;78.66;101473.44;6216617;28;20204;-77
2020/12/11 06:16:39;;;;;;;14.27;8.70;;;;;;;3.67;79.56;101469.56;6219587;28;20195;-78
2020/12/11 06:19:44;;;;;;;15.33;8.93;;;;;;;3.84;78.90;101472.41;6218926;28;20204;-80
2020/12/11 06:22:48;;;;;;;16.23;8.53;;;;;;;3.92;79.34;101477.88;6217275;28;20699;-76
2020/12/11 06:25:53;;;;;;;16.43;8.83;;;;;;;3.83;79.33;101462.63;6216606;28;20203;-77
2020/12/11 06:28:58;;;;;;;18.90;10.93;;;;;;;3.99;78.63;101484.31;6213715;28;20791;-76
2020/12/11 06:32:02;;;;;;;20.17;8.90;;;;;;;4.14;78.43;101477.31;6198674;28;20212;-75
2020/12/11 06:35:11;;;;;;;21.00;8.70;;;;;;;4.19;78.73;101481.25;6216233;28;20199;-77
2020/12/11 06:38:39;;;;;;;18.60;8.90;;;;;;;4.11;77.48;101466.88;6200329;28;20308;-77
2020/12/11 06:41:42;;;;;;;17.67;8.57;;;;;;;4.08;77.21;101472.56;6216851;28;20209;-78
2020/12/11 06:44:47;;;;;;;13.20;8.50;;;;;;;3.88;77.30;101480.03;6217971;28;20201;-78
2020/12/11 06:47:55;;;;;;;21.03;7.70;;;;;;;4.18;76.37;101478.72;6201081;28;20434;-78
2020/12/11 06:51:03;;;;;;;12.93;7.90;;;;;;;4.11;76.49;101477.66;6221007;28;20196;-76
2020/12/11 06:54:11;;;;;;;16.87;7.67;;;;;;;4.01;76.76;101487.69;6219742;28;20685;-77
2020/12/11 06:57:30;;;;;;;12.07;7.30;;;;;;;3.84;78.49;101485.91;6220370;28;20205;-75
2020/12/11 07:00:36;;;;;;;12.97;7.77;;;;;;;3.72;77.89;101472.66;6220162;28;20188;-75
2020/12/11 07:03:54;;;;;;;16.03;7.83;;;;;;;3.87;78.88;101491.00;6214607;28;20228;-77
2020/12/11 07:06:58;;;;;;;17.20;7.77;;;;;;;3.83;78.17;101484.22;6217129;28;20719;-76
2020/12/11 07:10:01;;;;;;;14.47;7.97;;;;;;;3.97;78.07;101491.72;6214122;28;20207;-77
2020/12/11 07:13:10;;;;;;;11.87;7.30;;;;;;;3.89;77.53;101494.38;6200344;28;20206;-78
2020/12/11 07:16:15;;;;;;;11.10;7.60;;;;;;;3.83;78.08;101489.63;6207405;28;20485;-77
2020/12/11 07:19:20;;;;;;;14.20;7.70;;;;;;;3.85;78.56;101490.31;6210312;28;20677;-77
2020/12/11 07:22:30;;;;;;;11.83;7.87;;;;;;;3.87;77.34;101470.25;6212043;28;20224;-76
2020/12/11 07:25:36;;;;;;;21.50;8.13;;;;;;;4.20;75.74;101498.28;6214167;28;20293;-76
2020/12/11 07:28:39;;;;;;;12.90;8.00;;;;;;;4.17;75.33;101490.50;6213806;28;20238;-78
2020/12/11 07:31:44;;;;;;;15.47;7.57;;;;;;;4.16;75.30;101491.53;6218899;28;20280;-78
2020/12/11 07:34:50;;;;;;;14.43;7.53;;;;;;;4.01;76.19;101479.59;6213875;28;20205;-79
2020/12/11 07:37:55;;;;;;;10.80;7.13;;;;;;;3.74;76.53;101477.91;6213840;28;20201;-78
2020/12/11 07:41:04;;;;;;;16.30;8.03;;;;;;;3.94;76.79;101470.44;6213785;28;20292;-77
2020/12/11 07:44:10;;;;;;;12.80;7.40;;;;;;;3.79;77.15;101470.19;6209339;28;20210;-77
2020/12/11 07:47:17;;;;;;;14.70;6.97;;;;;;;3.73;77.79;101466.25;6209531;28;20199;-78
2020/12/11 07:50:27;;;;;;;15.37;7.30;;;;;;;3.84;76.86;101472.41;6215856;28;20265;-77
2020/12/11 07:53:30;;;;;;;15.43;7.67;;;;;;;3.86;77.58;101467.69;6212135;28;20550;-77
2020/12/11 07:56:34;;;;;;;11.53;6.70;;;;;;;3.82;77.46;101458.22;6208696;28;20568;-76
2020/12/11 07:59:38;;;;;;;9.83;7.37;;;;;;;3.82;77.12;101460.94;6220175;28;20202;-79
2020/12/11 08:02:41;;;;;;;9.80;7.37;;;;;;;3.79;77.62;101457.53;6210884;28;20219;-76
2020/12/11 08:05:45;;;;;;;16.13;7.97;;;;;;;3.71;78.09;101460.19;6215439;28;20293;-77
2020/12/11 08:08:52;;;;;;;10.43;7.70;;;;;;;3.87;77.01;101453.19;6215710;28;20197;-77
2020/12/11 08:12:10;;;;;;;15.83;9.53;;;;;;;3.86;77.91;101446.09;6213948;28;20198;-76
2020/12/11 08:15:29;;;;;;;12.83;8.03;;;;;;;3.76;76.96;101430.00;6217571;28;20270;-78
2020/12/11 08:18:42;;;;;;;12.40;7.50;;;;;;;3.84;77.99;101438.16;6216775;28;20368;-77
2020/12/11 08:21:47;;;;;;;23.83;8.70;;;;;;;3.91;78.21;101438.38;6217253;28;20208;-78
2020/12/11 08:24:50;;;;;;;28.80;9.10;;;;;;;3.87;78.33;101442.41;6217870;28;20367;-78
2020/12/11 08:27:53;;;;;;;15.03;8.57;;;;;;;3.91;77.81;101438.38;6203166;28;20399;-76
2020/12/11 08:30:56;;;;;;;20.57;8.40;;;;;;;4.11;77.31;101437.97;6213170;28;20195;-77
2020/12/11 08:34:06;;;;;;;10.60;7.83;;;;;;;3.92;76.87;101434.66;6217932;28;20205;-77
2020/12/11 08:37:17;;;;;;;15.53;8.30;;;;;;;3.77;77.39;101416.34;6216854;28;20230;-78
2020/12/11 08:40:20;;;;;;;15.73;8.83;;;;;;;3.94;77.38;101438.06;6199971;28;20200;-77
2020/12/11 08:43:37;;;;;;;16.23;8.27;;;;;;;3.95;77.25;101439.75;6215486;28;20222;-79
2020/12/11 08:46:55;;;;;;;14.17;7.97;;;;;;;3.84;78.16;101438.16;6216542;28;20209;-77
2020/12/11 08:50:05;;;;;;;10.00;7.33;;;;;;;3.70;77.89;101431.50;6212593;28;20342;-76
2020/12/11 08:53:17;;;;;;;17.03;8.20;;;;;;;3.82;77.08;101439.34;6215266;28;20569;-75
2020/12/11 08:56:20;;;;;;;15.10;9.00;;;;;;;3.86;77.28;101429.91;6212122;28;20190;-77
2020/12/11 08:59:23;;;;;;;16.83;8.87;;;;;;;4.01;76.96;101422.91;6216695;28;20209;-76
2020/12/11 09:02:29;;;;;;;15.37;8.77;;;;;;;4.01;76.62;101422.91;6216784;28;20609;-76
2020/12/11 09:05:33;;;;;;;16.70;8.60;;;;;;;4.12;76.51;101426.19;6216838;28;20328;-76
2020/12/11 09:08:41;;;;;;;19.30;9.20;;;;;;;4.00;76.55;101421.22;6216871;28;20194;-77
2020/12/11 09:11:47;;;;;;;19.50;9.07;;;;;;;4.03;76.52;101416.31;6215749;28;20678;-76
2020/12/11 09:14:50;;;;;;;16.30;8.70;;;;;;;3.96;77.27;101422.53;6212313;28;20673;-77
2020/12/11 09:17:53;;;;;;;13.13;8.43;;;;;;;4.03;76.99;101415.50;6212697;28;20225;-77
2020/12/11 09:20:57;;;;;;;15.90;8.43;;;;;;;4.12;77.14;101409.13;6214695;28;20206;-77
2020/12/11 09:24:01;;;;;;;18.83;8.87;;;;;;;4.23;76.77;101409.69;6216245;28;20226;-77
2020/12/11 09:27:07;;;;;;;13.67;9.17;;;;;;;4.12;77.67;101398.31;6213256;28;20277;-77
2020/12/11 09:30:22;;;;;;;11.37;8.73;;;;;;;4.04;77.35;101401.84;6216612;28;20228;-78
2020/12/11 09:33:45;;;;;;;18.17;8.30;;;;;;;4.05;77.06;101389.19;6212750;28;20248;-77
2020/12/11 09:36:55;;;;;;;12.03;8.43;;;;;;;4.00;77.93;101378.03;6215357;28;20212;-77
2020/12/11 09:39:59;;;;;;;14.37;8.70;;;;;;;3.95;78.59;101386.63;6207007;28;20665;-77
2020/12/11 09:46:37;;;;;;;42.67;19.93;;;;;;;3.88;78.71;101379.31;6217189;28;20640;-77
2020/12/11 09:49:51;;;;;;;26.40;14.30;;;;;;;3.91;79.70;101379.81;6216183;28;20234;-78
2020/12/11 09:53:02;;;;;;;19.27;10.50;;;;;;;3.94;79.04;101378.66;6215047;28;20200;-77
2020/12/11 09:56:09;;;;;;;17.90;9.60;;;;;;;3.97;80.08;101379.19;6209090;28;20199;-78
2020/12/11 09:59:15;;;;;;;16.73;10.13;;;;;;;3.95;80.82;101372.25;6215295;28;20403;-77
2020/12/11 10:02:32;;;;;;;23.50;11.13;;;;;;;3.87;80.41;101386.56;6214018;28;20207;-76
2020/12/11 10:05:44;;;;;;;14.70;9.83;;;;;;;3.97;80.34;101370.25;6198075;28;20664;-76
2020/12/11 10:08:56;;;;;;;16.80;9.37;;;;;;;3.93;80.96;101376.97;6212335;28;21801;-76
2020/12/11 10:12:02;;;;;;;21.87;10.90;;;;;;;3.92;80.38;101377.97;6217827;28;20335;-77
2020/12/11 10:15:10;;;;;;;13.70;9.53;;;;;;;3.87;80.72;101361.41;6196360;28;20217;-78
2020/12/11 10:18:24;;;;;;;16.80;9.17;;;;;;;3.94;80.79;101373.25;6207190;28;20201;-76
2020/12/11 10:21:29;;;;;;;14.27;8.80;;;;;;;3.85;82.88;101358.03;6215042;28;20288;-76
2020/12/11 10:24:33;;;;;;;14.37;9.27;;;;;;;3.87;83.72;101361.41;6215362;28;20370;-76
2020/12/11 10:27:40;;;;;;;20.33;10.00;;;;;;;3.85;84.26;101358.03;6214944;28;20373;-78
2020/12/11 10:30:43;;;;;;;14.50;9.60;;;;;;;3.72;85.38;101345.81;6216032;28;20828;-76
2020/12/11 10:33:59;;;;;;;15.70;10.23;;;;;;;3.72;86.55;101337.72;6215800;28;20313;-77
2020/12/11 10:37:13;;;;;;;15.60;9.83;;;;;;;3.71;87.35;101341.44;6200846;28;20204;-75
2020/12/11 10:40:21;;;;;;;20.17;10.97;;;;;;;3.66;88.86;101357.25;6217905;28;20230;-76
2020/12/11 10:43:34;;;;;;;21.20;9.87;;;;;;;3.74;89.34;101346.53;6208041;28;20272;-78
2020/12/11 10:46:38;;;;;;;16.37;10.90;;;;;;;3.60;90.56;101333.59;6213810;28;20679;-76
2020/12/11 10:49:42;;;;;;;25.50;14.53;;;;;;;3.83;90.26;101355.47;6211859;28;20555;-77
2020/12/11 10:52:47;;;;;;;17.60;10.67;;;;;;;3.76;90.57;101335.56;6216591;28;20204;-77
2020/12/11 10:55:51;;;;;;;16.03;9.93;;;;;;;3.70;90.42;101331.63;6214976;28;20629;-77
2020/12/11 10:58:55;;;;;;;21.80;10.20;;;;;;;3.58;91.74;101335.63;6214445;28;20635;-76
2020/12/11 11:02:00;;;;;;;19.70;11.50;;;;;;;3.61;92.56;101335.31;6214426;28;20275;-76
2020/12/11 11:05:06;;;;;;;17.70;10.37;;;;;;;3.67;92.74;101331.94;6212959;28;20208;-77
2020/12/11 11:08:18;;;;;;;13.47;9.57;;;;;;;3.67;93.26;101323.84;6217133;28;20204;-76
2020/12/11 11:11:24;;;;;;;17.53;10.20;;;;;;;3.58;93.74;101330.22;6220571;28;20193;-76
2020/12/11 11:25:02;;;;;;;17.43;10.07;;;;;;;3.75;95.08;101310.41;6217883;28;20218;-76
2020/12/11 11:28:12;;;;;;;15.97;10.33;;;;;;;3.72;95.96;101299.09;6216445;28;20725;-77
2020/12/11 11:31:18;;;;;;;16.47;11.10;;;;;;;3.86;95.71;101305.72;6220360;28;20250;-77
2020/12/11 11:34:31;;;;;;;19.37;10.97;;;;;;;3.83;96.29;101308.78;6218027;28;20267;-78
2020/12/11 11:37:40;;;;;;;16.97;10.40;;;;;;;3.72;96.77;101308.03;6218851;28;20192;-78
2020/12/11 11:40:43;;;;;;;18.93;11.37;;;;;;;3.84;96.34;101297.81;6214637;28;20263;-77
2020/12/11 11:44:17;;;;;;;18.67;11.27;;;;;;;3.84;97.39;101302.34;6219509;28;20221;-78
2020/12/11 11:47:26;;;;;;;19.67;10.80;;;;;;;3.83;97.47;101301.50;6201493;28;20194;-76
2020/12/11 11:50:36;;;;;;;20.23;10.70;;;;;;;3.74;98.57;101297.09;6219085;28;20267;-77
2020/12/11 11:53:44;;;;;;;19.23;10.33;;;;;;;3.72;98.20;101294.53;6218415;28;20222;-77
2020/12/11 11:56:48;;;;;;;20.23;11.73;;;;;;;3.91;98.23;101303.38;6216711;28;20342;-77
2020/12/11 11:59:51;;;;;;;18.70;9.97;;;;;;;3.99;98.28;101303.41;6202179;28;20206;-78
2020/12/11 12:02:57;;;;;;;14.80;9.43;;;;;;;4.07;97.65;101292.66;6217776;28;20603;-78
2020/12/11 12:06:00;;;;;;;12.67;8.63;;;;;;;4.06;98.59;101296.34;6218991;28;20204;-77
2020/12/11 12:09:08;;;;;;;15.10;9.33;;;;;;;4.07;97.56;101287.25;6218121;28;20337;-77
2020/12/11 12:12:18;;;;;;;13.73;8.77;;;;;;;4.27;97.04;101283.25;6218834;28;20278;-77
2020/12/11 12:15:26;;;;;;;9.90;7.57;;;;;;;4.21;97.27;101283.94;6216816;28;20292;-77
2020/12/11 12:18:38;;;;;;;8.13;6.83;;;;;;;4.24;97.36;101278.19;6217748;28;20206;-77
2020/12/11 12:22:07;;;;;;;12.47;7.57;;;;;;;4.18;97.49;101284.25;6216392;28;20289;-79
2020/12/11 12:28:43;;;;;;;6.13;5.53;;;;;;;4.15;95.56;101279.19;6214056;28;20242;-77
2020/12/11 12:31:51;;;;;;;6.73;5.63;;;;;;;4.22;95.77;101281.06;6198897;28;20203;-79
2020/12/11 12:35:25;;;;;;;6.30;5.70;;;;;;;4.14;95.76;101288.28;6207575;28;20585;-81
2020/12/11 12:38:48;;;;;;;9.03;5.53;;;;;;;4.06;95.79;101280.16;6216448;28;20218;-78
2020/12/11 12:45:20;;;;;;;4.60;4.30;;;;;;;4.48;93.45;101271.97;6200709;28;20250;-78
2020/12/11 12:48:28;;;;;;;8.33;4.80;;;;;;;4.32;93.22;101252.03;6217000;28;20306;-78
2020/12/11 12:51:33;;;;;;;4.73;4.37;;;;;;;4.39;94.12;101271.13;6215555;28;20252;-78
2020/12/11 12:54:38;;;;;;;5.10;4.43;;;;;;;4.51;93.08;101259.00;6213188;28;20260;-78
2020/12/11 12:57:45;;;;;;;4.60;4.20;;;;;;;4.48;92.61;101280.94;6212618;28;20559;-77
2020/12/11 13:00:58;;;;;;;4.17;3.80;;;;;;;4.41;93.86;101274.50;6211005;28;20578;-78
2020/12/11 13:04:31;;;;;;;3.53;3.43;;;;;;;4.46;92.12;101272.16;6211579;28;20317;-77
2020/12/11 13:07:35;;;;;;;3.60;3.40;;;;;;;4.41;92.92;101263.72;6216337;28;20210;-77
2020/12/11 13:10:39;;;;;;;4.03;3.60;;;;;;;4.35;92.77;101269.75;6202721;28;20283;-77
2020/12/11 13:13:44;;;;;;;3.73;3.50;;;;;;;4.35;93.43;101269.75;6216372;28;20206;-78
2020/12/11 13:16:49;;;;;;;3.43;3.13;;;;;;;4.18;93.83;101273.44;6214328;28;20202;-77
2020/12/11 13:19:53;;;;;;;3.20;3.10;;;;;;;4.18;93.03;101252.69;6212274;28;20195;-77
2020/12/11 13:26:41;;;;;;;3.07;2.80;;;;;;;4.46;92.33;101276.72;6171470;28;20707;-78
2020/12/11 13:29:44;;;;;;;2.70;2.60;;;;;;;4.39;92.38;101276.53;6197185;28;20225;-76
2020/12/11 13:32:47;;;;;;;2.83;2.67;;;;;;;4.21;93.08;101273.13;6202442;28;20626;-78
2020/12/11 13:36:02;;;;;;;2.47;2.37;;;;;;;4.22;93.83;101274.81;6211432;28;20577;-76
2020/12/11 13:39:10;;;;;;;2.93;2.83;;;;;;;4.27;92.66;101277.84;6215209;28;20646;-76
2020/12/11 13:42:19;;;;;;;2.87;2.77;;;;;;;4.48;91.66;101263.88;6218904;28;20754;-76
2020/12/11 13:45:23;;;;;;;2.20;2.20;;;;;;;4.57;91.71;101263.69;6214130;28;20708;-78
2020/12/11 13:48:33;;;;;;;2.90;2.80;;;;;;;4.52;91.79;101260.66;6201660;28;20731;-77
2020/12/11 13:51:37;;;;;;;3.10;2.97;;;;;;;4.54;91.21;101264.06;6208384;28;20202;-77
2020/12/11 13:54:42;;;;;;;3.00;2.87;;;;;;;4.66;91.27;101257.31;6206071;28;20206;-77
2020/12/11 13:57:46;;;;;;;3.10;3.00;;;;;;;4.31;92.92;101263.03;6210813;28;20210;-76
2020/12/11 14:00:49;;;;;;;3.13;2.93;;;;;;;4.29;93.30;101265.00;6210361;28;20224;-80
2020/12/11 14:04:04;;;;;;;3.97;3.70;;;;;;;4.31;93.12;101266.53;6209464;28;20196;-78
2020/12/11 14:07:10;;;;;;;4.07;3.83;;;;;;;4.42;92.84;101254.56;6209606;28;20201;-77
2020/12/11 14:10:16;;;;;;;3.97;3.77;;;;;;;4.67;90.87;101264.41;6210290;28;20199;-78
2020/12/11 14:13:29;;;;;;;4.90;4.60;;;;;;;4.68;90.39;101263.38;6206845;28;20220;-78
2020/12/11 14:16:39;;;;;;;4.60;4.40;;;;;;;4.71;90.32;101260.34;6211208;28;20781;-77
2020/12/11 14:20:08;;;;;;;5.00;4.70;;;;;;;4.51;90.86;101261.69;6214297;28;20288;-76
2020/12/11 14:23:23;;;;;;;5.43;4.90;;;;;;;4.60;90.72;101257.13;6215574;28;20206;-78
2020/12/11 14:26:27;;;;;;;4.87;4.57;;;;;;;4.65;90.58;101255.59;6206697;28;20227;-78
2020/12/11 14:29:30;;;;;;;5.53;5.03;;;;;;;4.43;91.02;101256.28;6188641;28;20586;-78
2020/12/11 14:32:33;;;;;;;5.70;5.30;;;;;;;4.61;90.10;101259.66;6192096;28;20381;-78
2020/12/11 14:35:45;;;;;;;6.27;5.67;;;;;;;4.61;90.41;101265.06;6191294;28;20230;-79
2020/12/11 14:39:05;;;;;;;6.37;5.73;;;;;;;4.65;90.63;101263.72;6176067;28;20552;-77
2020/12/11 14:42:13;;;;;;;6.30;5.30;;;;;;;4.50;90.59;101268.09;6188489;28;20234;-79
2020/12/11 14:45:16;;;;;;;5.90;5.37;;;;;;;4.40;91.06;101262.00;6194497;28;20217;-78
2020/12/11 14:48:27;;;;;;;7.13;5.73;;;;;;;4.43;90.66;101264.38;6194731;28;20232;-78
2020/12/11 14:51:31;;;;;;;7.00;6.33;;;;;;;4.37;91.24;101267.75;6186564;28;20552;-77
2020/12/11 14:54:36;;;;;;;6.63;5.93;;;;;;;4.44;90.68;101260.69;6189260;28;20246;-76
2020/12/11 14:57:40;;;;;;;8.23;5.77;;;;;;;4.63;88.82;101273.84;6188041;28;20195;-76
2020/12/11 15:00:44;;;;;;;5.77;5.27;;;;;;;4.69;89.10;101273.19;6184623;28;20207;-76